Terminal Aerodrome Forecast
Issued by NWS Brownsville, TX

Home | Current Version | Previous Version | Text Only | Print | Product List | Glossary On
Versions: 1 2 3 4 5 6 7 8 9 10 11 12 13 14
099
FTUS44 KBRO 301739
TAFMFE
TAF
KMFE 301739Z 3018/0118 02009G16KT P6SM FEW060
     FM010200 06003KT P6SM BKN250
     FM011500 05010KT P6SM SCT040 BKN250=

USA.gov is the U.S. government's official web portal to all federal, state and local government web resources and services.